K0V4

Brookneal Airport

Brookneal, Virginia, USA
METAR K0V4 241335Z AUTO 02007KT 10SM CLR 24/16 A3019 RMK AO1 T02430159
Observed Flight Rules
May-24 @ 13:35 UTC (24 minutes ago) Visual Flight Rules
Wind Visibility Clouds
20° at 7 knots 10 miles
  • Clear skies
Temperatures Readings
Current 24°C / 75°F
Dewpoint 16°C / 61°F
Humidity 61%
Altimeter 30.19" Hg
Pressure 1022 hPa
Elevation 182
METAR K0V4 241335Z AUTO 02007KT 10SM CLR 24/16 A3019 RMK AO1 T02430159
Observed Flight Rules
May-24 @ 13:35 UTC
(24 minutes ago)
VFR
Wind Visibility
20° at 7 knots 10 miles
Clouds
  • Clear skies
Temperature Dewpoint
24°C / 75°F 16°C / 61°F
Humidity Altimeter Pressure
61% 30.19" Hg 1022 hPa